METAR Data
IDs: Format: Raw Decoded Include TAF

Data at: 0646 UTC 03 Aug 2021

KSBA 030553Z 00000KT 10SM CLR 18/14 A2994 RMK AO2 SLP137 T01780144 10217 20172 50002 $
KSBA 030453Z 11005KT 10SM CLR 18/15 A2994 RMK AO2 SLP138 T01830150 $
KSBA 030353Z 10005KT 10SM CLR 19/14 A2993 RMK AO2 SLP135 T01890144 $
KSBA 030253Z 00000KT 10SM CLR 19/16 A2993 RMK AO2 SLP135 T01940156 58007 $
KSBA 030153Z 12006KT 10SM CLR 21/14 A2994 RMK AO2 SLP138 T02110144 $
KSBA 030053Z 15006KT 10SM CLR 21/15 A2995 RMK AO2 SLP141 T02060150 $
KSBA 022353Z 14007KT 10SM CLR 22/15 A2995 RMK AO2 SLP143 T02220150 10261 20217 56018 $
KSBA 022253Z 19005KT 10SM CLR 24/14 A2996 RMK AO2 SLP146 T02440144 $
KSBA 022153Z VRB05KT 10SM CLR 26/15 A2999 RMK AO2 SLP154 T02610150 $
KSBA 022053Z VRB06KT 10SM CLR 25/14 A3001 RMK AO2 SLP160 T02500144 58013 $
KSBA 021953Z 23006KT 10SM CLR 24/13 A3002 RMK AO2 SLP167 T02390133 $
KSBA 021853Z 23007KT 10SM CLR 24/14 A3004 RMK AO2 SLP171 T02390144 $
KSBA 021753Z 15006KT 10SM CLR 22/15 A3004 RMK AO2 SLP173 T02170150 10217 20111 57005 $
KSBA 021653Z 21004KT 10SM CLR 21/15 A3005 RMK AO2 SLP175 T02060150 $
KSBA 021553Z 00000KT 10SM CLR 19/14 A3005 RMK AO2 SLP177 T01940144 $
KSBA 021453Z 00000KT 10SM CLR 17/14 A3006 RMK AO2 SLP178 T01720139 51018 $
KSBA 021353Z 00000KT 10SM CLR 13/12 A3005 RMK AO2 SLP174 T01330117 $
KSBA 021253Z 00000KT 10SM CLR 12/11 A3002 RMK AO2 SLP167 T01220111 $
KSBA 021153Z AUTO 26003KT 10SM CLR 13/11 A3001 RMK AO2 SLP160 T01280111 10178 20122 53004 $
KSBA 021053Z AUTO 00000KT 10SM CLR 15/12 A3000 RMK AO2 SLP157 T01500122 $
KSBA 020953Z AUTO 00000KT 10SM CLR 14/13 A3000 RMK AO2 SLP159 T01440133 $
KSBA 020853Z AUTO 00000KT 10SM CLR 16/14 A2999 RMK AO2 SLP156 T01610139 56004 $
KSBA 020753Z AUTO 08004KT 10SM CLR 17/14 A3000 RMK AO2 SLP157 T01670144 402500133 $
KSBA 020653Z AUTO 07003KT 10SM CLR 17/15 A3000 RMK AO2 SLP159 T01720150 $
KSBA 020553Z AUTO 11006KT 10SM CLR 18/16 A3000 RMK AO2 SLP160 T01780156 10239 20172 53003 $
KSBA 020453Z 12003KT 10SM CLR 17/14 A3000 RMK AO2 SLP160 T01720144 $
KSBA 020353Z 00000KT 10SM CLR 18/14 A2999 RMK AO2 SLP157 T01780144 $
KSBA 020253Z 25005KT 10SM CLR 19/14 A2999 RMK AO2 SLP157 T01940139 58005 $
KSBA 020153Z 24004KT 10SM CLR 22/14 A3000 RMK AO2 SLP157 T02170144 $
KSBA 020053Z 26010KT 10SM CLR 22/14 A3001 RMK AO2 SLP161 T02220144 $
KSBA 012353Z 26012KT 10SM CLR 23/14 A3001 RMK AO2 SLP162 T02330139 10250 20200 58014 $
KSBA 012253Z 25012KT 10SM CLR 24/14 A3003 RMK AO2 SLP167 T02390139 $
KSBA 012153Z 26012KT 10SM CLR 24/13 A3004 RMK AO2 SLP171 T02390133 $
KSBA 012053Z 25010KT 10SM CLR 24/14 A3005 RMK AO2 SLP175 T02390139 58007 $
KSBA 011953Z 26008KT 10SM CLR 23/14 A3006 RMK AO2 SLP178 T02330144 $
KSBA 011853Z 25007KT 10SM CLR 22/16 A3007 RMK AO2 SLP181 FG BNK ALNG SHRLNE E-W T02170156 $